Time;durP1;ratioP1;P1;durP2;ratioP2;P2;SDS_P1;SDS_P2;PMS_P1;PMS_P2;Temp;Humidity;BMP_temperature;BMP_pressure;BME280_temperature;BME280_humidity;BME280_pressure;Samples;Min_cycle;Max_cycle;Signal;HPM_P1;HPM_P2
2021/10/09 00:04:49;;;;;;;1.83;0.80;;;;;;;;;;21252993;27;20058;-75
2021/10/09 00:14:52;;;;;;;3.08;0.70;;;;;;;;;;21251819;27;20039;-74
2021/10/09 00:24:53;;;;;;;2.25;0.73;;;;;;;;;;21251181;27;20053;-75
2021/10/09 00:34:55;;;;;;;2.40;1.00;;;;;;;;;;21249845;27;20039;-64
2021/10/09 00:44:57;;;;;;;1.70;1.00;;;;;;;;;;21250436;27;20085;-75
2021/10/09 00:55:01;;;;;;;5.40;1.25;;;;;;;;;;21258195;27;20031;-74
2021/10/09 01:05:04;;;;;;;4.50;1.02;;;;;;;;;;21266500;27;20096;-75
2021/10/09 01:15:19;;;;;;;2.93;1.03;;;;;;;;;;21249261;28;20078;-75
2021/10/09 01:25:21;;;;;;;1.88;0.90;;;;;;;;;;21250275;27;20052;-69
2021/10/09 01:35:23;;;;;;;1.90;1.05;;;;;;;;;;21246347;27;20047;-74
2021/10/09 01:45:25;;;;;;;3.17;0.93;;;;;;;;;;21255318;27;20079;-75
2021/10/09 01:55:27;;;;;;;2.75;1.30;;;;;;;;;;21261748;27;20100;-74
2021/10/09 02:05:35;;;;;;;2.47;1.10;;;;;;;;;;21262347;27;20047;-75
2021/10/09 02:15:47;;;;;;;4.35;1.33;;;;;;;;;;21262455;27;20047;-72
2021/10/09 02:25:54;;;;;;;2.97;1.13;;;;;;;;;;21261013;27;20387;-72
2021/10/09 02:36:00;;;;;;;1.80;1.10;;;;;;;;;;21261296;27;20108;-63
2021/10/09 02:46:03;;;;;;;5.40;0.90;;;;;;;;;;21271778;27;20043;-64
2021/10/09 02:56:08;;;;;;;4.13;1.00;;;;;;;;;;21272507;27;20407;-75
2021/10/09 03:06:22;;;;;;;2.38;1.02;;;;;;;;;;21256918;27;20152;-75
2021/10/09 03:16:27;;;;;;;2.22;0.90;;;;;;;;;;21255237;27;20043;-72
2021/10/09 03:26:31;;;;;;;2.97;0.80;;;;;;;;;;21254891;27;20539;-69
2021/10/09 03:36:35;;;;;;;1.75;0.85;;;;;;;;;;21253631;27;20051;-74
2021/10/09 03:46:45;;;;;;;1.95;0.50;;;;;;;;;;21253078;27;20108;-75
2021/10/09 03:56:48;;;;;;;2.10;0.80;;;;;;;;;;21256871;27;20134;-75
2021/10/09 04:06:52;;;;;;;1.87;0.80;;;;;;;;;;21259845;27;20058;-76
2021/10/09 04:16:58;;;;;;;3.00;1.00;;;;;;;;;;21276260;27;20097;-72
2021/10/09 04:27:02;;;;;;;2.60;0.93;;;;;;;;;;21265268;27;20083;-76
2021/10/09 04:37:05;;;;;;;1.92;0.93;;;;;;;;;;21306993;27;20263;-74
2021/10/09 04:47:08;;;;;;;2.88;0.90;;;;;;;;;;21249793;27;20047;-74
2021/10/09 04:57:12;;;;;;;2.70;1.20;;;;;;;;;;21248776;28;20058;-74
2021/10/09 05:07:14;;;;;;;2.05;0.90;;;;;;;;;;21254414;27;20054;-74
2021/10/09 05:17:17;;;;;;;3.55;1.05;;;;;;;;;;21252913;27;20126;-72
2021/10/09 05:27:20;;;;;;;1.77;0.80;;;;;;;;;;21265453;27;20055;-68
2021/10/09 05:37:23;;;;;;;6.22;1.20;;;;;;;;;;21263818;27;20043;-68
2021/10/09 05:47:28;;;;;;;2.90;0.82;;;;;;;;;;21262314;27;20456;-72
2021/10/09 05:57:35;;;;;;;2.63;1.10;;;;;;;;;;21263130;27;20053;-67
2021/10/09 06:59:36;;;;;;;3.72;2.67;;;;;;;;;;21256260;27;20154;-64
2021/10/09 07:09:40;;;;;;;6.63;1.77;;;;;;;;;;21254057;27;20247;-66
2021/10/09 07:19:42;;;;;;;6.13;2.13;;;;;;;;;;21254931;27;20055;-74
2021/10/09 07:29:43;;;;;;;2.80;2.08;;;;;;;;;;21254545;27;20047;-64
2021/10/09 07:39:45;;;;;;;4.15;1.65;;;;;;;;;;21253432;27;20043;-65
2021/10/09 07:49:47;;;;;;;3.30;2.22;;;;;;;;;;21252830;27;20088;-66
2021/10/09 07:59:51;;;;;;;13.32;2.88;;;;;;;;;;21252264;27;20086;-65
2021/10/09 08:10:13;;;;;;;6.32;2.00;;;;;;;;;;21251798;27;20112;-63
2021/10/09 08:20:34;;;;;;;7.18;2.25;;;;;;;;;;21260121;27;20050;-65
2021/10/09 08:41:24;;;;;;;4.68;2.10;;;;;;;;;;21249000;27;20047;-65
2021/10/09 08:51:32;;;;;;;5.25;2.33;;;;;;;;;;21251762;27;20125;-65
2021/10/09 09:32:54;;;;;;;6.63;3.75;;;;;;;;;;21264667;27;20047;-77
2021/10/09 09:42:58;;;;;;;7.57;4.20;;;;;;;;;;21246411;27;20054;-67
2021/10/09 09:53:02;;;;;;;8.30;4.27;;;;;;;;;;21263092;27;20054;-69
2021/10/09 10:03:05;;;;;;;11.30;5.00;;;;;;;;;;21260091;27;20058;-66
2021/10/09 10:13:11;;;;;;;7.35;4.43;;;;;;;;;;21259716;27;20050;-64
2021/10/09 10:23:33;;;;;;;5.87;3.60;;;;;;;;;;21258909;27;20047;-71
2021/10/09 10:33:49;;;;;;;6.50;4.10;;;;;;;;;;21240005;27;20310;-67
2021/10/09 10:43:55;;;;;;;9.88;4.70;;;;;;;;;;21257227;27;20047;-64
2021/10/09 11:04:15;;;;;;;18.15;10.52;;;;;;;;;;21255079;27;20057;-65
2021/10/09 11:14:21;;;;;;;6.88;4.47;;;;;;;;;;21253264;27;20142;-66
2021/10/09 11:24:38;;;;;;;7.38;4.68;;;;;;;;;;21253999;27;20440;-65
2021/10/09 11:34:50;;;;;;;8.77;5.43;;;;;;;;;;21252781;27;20043;-75
2021/10/09 11:55:41;;;;;;;5.93;3.72;;;;;;;;;;20989006;28;20131;-64
2021/10/09 12:05:54;;;;;;;10.68;4.60;;;;;;;;;;20991413;28;20062;-68
2021/10/09 12:16:09;;;;;;;9.03;3.30;;;;;;;;;;20987362;28;20076;-67
2021/10/09 12:26:15;;;;;;;5.90;3.60;;;;;;;;;;21085752;27;20053;-65
2021/10/09 12:36:56;;;;;;;5.97;3.70;;;;;;;;;;21249244;27;20538;-67
2021/10/09 12:46:51;;;;;;;5.38;3.10;;;;;;;;;;21249750;27;20051;-76
2021/10/09 12:56:56;;;;;;;4.90;2.50;;;;;;;;;;21260266;27;20043;-70
2021/10/09 13:06:57;;;;;;;5.30;2.97;;;;;;;;;;21260272;27;20051;-72
2021/10/09 13:16:59;;;;;;;5.47;2.55;;;;;;;;;;21247440;27;20047;-67
2021/10/09 13:27:01;;;;;;;5.53;2.70;;;;;;;;;;21247239;27;20051;-66
2021/10/09 13:37:05;;;;;;;3.58;1.85;;;;;;;;;;21248189;27;20134;-65
2021/10/09 13:47:06;;;;;;;;;;;;;;;;;;21263044;27;20115;-67
2021/10/09 13:57:08;;;;;;;6.47;2.78;;;;;;;;;;21262442;27;19955;-64
2021/10/09 14:07:09;;;;;;;16.13;10.25;;;;;;;;;;21260288;27;20082;-64
2021/10/09 14:17:11;;;;;;;3.50;2.03;;;;;;;;;;21260946;27;20050;-66
2021/10/09 14:27:13;;;;;;;3.42;1.88;;;;;;;;;;21259564;27;20092;-71
2021/10/09 14:37:14;;;;;;;4.22;1.98;;;;;;;;;;21258948;27;20383;-66
2021/10/09 15:18:22;;;;;;;2.83;1.58;;;;;;;;;;21264600;27;20445;-67
2021/10/09 15:28:23;;;;;;;4.78;1.58;;;;;;;;;;21286886;27;20058;-65
2021/10/09 15:38:25;;;;;;;3.20;1.60;;;;;;;;;;21274855;27;20058;-70
2021/10/09 15:48:27;;;;;;;3.20;1.50;;;;;;;;;;21261903;27;20054;-73
2021/10/09 15:58:29;;;;;;;5.32;2.38;;;;;;;;;;21252447;27;20051;-70
2021/10/09 16:08:33;;;;;;;3.78;1.65;;;;;;;;;;21250919;27;20047;-75
2021/10/09 16:18:35;;;;;;;5.22;2.45;;;;;;;;;;21249830;27;20049;-71
2021/10/09 16:28:37;;;;;;;4.07;2.22;;;;;;;;;;21250287;27;20069;-68
2021/10/09 16:38:38;;;;;;;4.30;1.35;;;;;;;;;;21250087;27;20047;-74
2021/10/09 16:48:41;;;;;;;3.78;2.13;;;;;;;;;;21250737;27;20047;-75
2021/10/09 16:58:43;;;;;;;7.57;3.20;;;;;;;;;;21248388;27;20495;-75
2021/10/09 17:08:45;;;;;;;3.60;1.65;;;;;;;;;;21248714;28;20395;-74
2021/10/09 17:18:48;;;;;;;4.32;2.83;;;;;;;;;;21261965;27;20375;-75
2021/10/09 17:28:50;;;;;;;11.27;5.30;;;;;;;;;;21268751;27;20047;-76
2021/10/09 17:38:52;;;;;;;3.45;2.50;;;;;;;;;;21262780;27;20051;-74
2021/10/09 17:48:53;;;;;;;7.38;4.90;;;;;;;;;;21261439;27;20054;-65
2021/10/09 17:58:55;;;;;;;13.35;9.38;;;;;;;;;;21262033;27;20054;-73
2021/10/09 18:08:57;;;;;;;11.88;8.10;;;;;;;;;;21259694;27;20082;-75
2021/10/09 18:18:59;;;;;;;9.20;5.97;;;;;;;;;;21259919;27;20062;-64
2021/10/09 18:29:03;;;;;;;20.65;7.72;;;;;;;;;;21257599;27;20055;-64
2021/10/09 18:39:07;;;;;;;;;;;;;;;;;;21259063;27;20058;-73
2021/10/09 18:49:20;;;;;;;;;;;;;;;;;;21257092;27;20267;-67
2021/10/09 18:59:22;;;;;;;16.40;9.47;;;;;;;;;;21256535;27;20377;-67
2021/10/09 19:09:23;;;;;;;16.15;10.07;;;;;;;;;;21257019;27;20051;-64
2021/10/09 19:19:26;;;;;;;13.82;8.75;;;;;;;;;;21241209;27;20043;-68
2021/10/09 19:29:27;;;;;;;10.10;6.18;;;;;;;;;;21268670;27;20055;-76
2021/10/09 19:39:29;;;;;;;12.27;5.55;;;;;;;;;;21260206;27;20482;-75
2021/10/09 19:49:31;;;;;;;10.18;4.05;;;;;;;;;;21247664;27;20383;-64
2021/10/09 19:59:34;;;;;;;18.13;4.95;;;;;;;;;;21251922;27;20415;-65
2021/10/09 20:09:49;;;;;;;13.15;4.93;;;;;;;;;;21253096;27;20043;-64
2021/10/09 20:19:57;;;;;;;9.57;4.07;;;;;;;;;;21252055;27;20043;-64
2021/10/09 20:29:59;;;;;;;9.02;4.70;;;;;;;;;;21250542;27;20127;-74
2021/10/09 20:40:01;;;;;;;6.50;3.15;;;;;;;;;;21249861;27;20047;-76
2021/10/09 20:50:04;;;;;;;7.55;3.55;;;;;;;;;;21248827;27;20039;-73
2021/10/09 21:00:07;;;;;;;5.17;3.47;;;;;;;;;;21249455;28;20057;-64
2021/10/09 21:10:14;;;;;;;8.98;3.30;;;;;;;;;;21248033;27;20082;-72
2021/10/09 21:30:41;;;;;;;5.28;2.28;;;;;;;;;;21248145;27;20564;-75
2021/10/09 21:40:44;;;;;;;7.50;3.35;;;;;;;;;;21249036;27;20119;-67
2021/10/09 21:50:45;;;;;;;6.43;3.28;;;;;;;;;;21230724;27;20079;-75
2021/10/09 22:00:59;;;;;;;6.68;3.08;;;;;;;;;;21252015;27;20050;-71
2021/10/09 22:41:51;;;;;;;11.38;3.90;;;;;;;;;;21258276;27;20051;-73
2021/10/09 22:51:53;;;;;;;8.05;3.50;;;;;;;;;;21259209;27;20047;-75
2021/10/09 23:01:55;;;;;;;6.60;3.38;;;;;;;;;;21257962;27;20096;-69
2021/10/09 23:11:57;;;;;;;7.38;3.28;;;;;;;;;;21303739;27;20525;-73
2021/10/09 23:22:00;;;;;;;8.27;3.45;;;;;;;;;;21257699;27;20516;-74
2021/10/09 23:32:02;;;;;;;6.00;2.95;;;;;;;;;;21256271;27;20085;-70
2021/10/09 23:42:04;;;;;;;5.35;2.47;;;;;;;;;;21255764;27;20063;-71
2021/10/09 23:52:08;;;;;;;8.10;2.90;;;;;;;;;;21254967;27;20051;-69
